Terminal Aerodrome Forecast
Issued by NWS Wakefield, VA

Home | Current Version | Previous Version | Text Only | Print | Product List | Glossary On
Versions: 1 2 3 4 5 6 7 8 9 10 11 12 13 14 15 16 17
000
FTUS41 KAKQ 160800 AAA
TAFECG
TAF AMD
KECG 160813Z 1608/1706 34020G30KT P6SM SCT035
     FM161200 01019G27KT P6SM SKC
     FM161800 03016G23KT P6SM SKC
     FM170000 04014KT P6SM BKN030=

USA.gov is the U.S. government's official web portal to all federal, state and local government web resources and services.